Lacrosse, Wisconsin
Current Conditions -  °F | °C
As of 5:53 AM on Sunday 21 Dec 2014 (Local Time) from KLSE Reporting Station
Haze Haze  
Wind Chill: 27°   Ceiling: 900
Heat Index: 34°   Visibility: 6mi
Dew Point: 30°   Wind: 8mph
Humidity: 85%   Direction: 150°SSE
Pressure: 30.04"   Gusts: NA
Location:  43.8458°N, 91.2342°W
Report Text: KLSE 211153Z 15007KT 6SM BR OVC009 01/M01 A3004 RMK AO2 SLP183 T00111011 10011 20006 58016
Loading
Personal Weather Stations






























Interactive Weather Map New forecast layout! Learn more

10-Day Weather Forecast

Advertisements
Track Severe Weather on mobile